sensor_id;sensor_type;location;lat;lon;timestamp;temperature;humidity
48686;DHT22;34485;51.536;3.816;2023-02-07T00:00:13;1.50;99.90
48686;DHT22;34485;51.536;3.816;2023-02-07T00:02:44;1.50;99.90
48686;DHT22;34485;51.536;3.816;2023-02-07T00:05:10;1.50;99.90
48686;DHT22;34485;51.536;3.816;2023-02-07T00:07:37;1.50;99.90
48686;DHT22;34485;51.536;3.816;2023-02-07T00:10:04;1.50;99.90
48686;DHT22;34485;51.536;3.816;2023-02-07T00:12:30;1.40;99.90
48686;DHT22;34485;51.536;3.816;2023-02-07T00:14:55;1.30;99.90
48686;DHT22;34485;51.536;3.816;2023-02-07T00:17:21;1.30;99.90
48686;DHT22;34485;51.536;3.816;2023-02-07T00:19:47;1.30;99.90
48686;DHT22;34485;51.536;3.816;2023-02-07T00:22:12;1.30;99.90
48686;DHT22;34485;51.536;3.816;2023-02-07T00:24:38;1.40;99.90
48686;DHT22;34485;51.536;3.816;2023-02-07T00:27:03;1.50;99.90
48686;DHT22;34485;51.536;3.816;2023-02-07T00:29:29;1.50;99.90
48686;DHT22;34485;51.536;3.816;2023-02-07T00:31:57;1.50;99.90
48686;DHT22;34485;51.536;3.816;2023-02-07T00:34:23;1.40;99.90
48686;DHT22;34485;51.536;3.816;2023-02-07T00:36:48;1.40;99.90
48686;DHT22;34485;51.536;3.816;2023-02-07T00:39:15;1.30;99.90
48686;DHT22;34485;51.536;3.816;2023-02-07T00:44:07;1.30;99.90
48686;DHT22;34485;51.536;3.816;2023-02-07T00:46:34;1.20;99.90
48686;DHT22;34485;51.536;3.816;2023-02-07T00:49:00;1.20;99.90
48686;DHT22;34485;51.536;3.816;2023-02-07T00:51:26;1.20;99.90
48686;DHT22;34485;51.536;3.816;2023-02-07T00:53:53;1.20;99.90
48686;DHT22;34485;51.536;3.816;2023-02-07T00:56:20;1.20;99.90
48686;DHT22;34485;51.536;3.816;2023-02-07T00:58:46;1.30;99.90
48686;DHT22;34485;51.536;3.816;2023-02-07T01:01:12;1.20;99.90
48686;DHT22;34485;51.536;3.816;2023-02-07T01:03:38;1.30;99.90
48686;DHT22;34485;51.536;3.816;2023-02-07T01:06:04;1.40;99.90
48686;DHT22;34485;51.536;3.816;2023-02-07T01:08:30;1.40;99.90
48686;DHT22;34485;51.536;3.816;2023-02-07T01:10:56;1.40;99.90
48686;DHT22;34485;51.536;3.816;2023-02-07T01:13:22;1.50;99.90
48686;DHT22;34485;51.536;3.816;2023-02-07T01:15:48;1.60;99.90
48686;DHT22;34485;51.536;3.816;2023-02-07T01:18:14;1.70;99.90
48686;DHT22;34485;51.536;3.816;2023-02-07T01:20:40;1.80;99.90
48686;DHT22;34485;51.536;3.816;2023-02-07T01:23:06;1.90;99.90
48686;DHT22;34485;51.536;3.816;2023-02-07T01:25:32;1.70;99.90
48686;DHT22;34485;51.536;3.816;2023-02-07T01:27:58;1.60;99.90
48686;DHT22;34485;51.536;3.816;2023-02-07T01:30:24;1.70;99.90
48686;DHT22;34485;51.536;3.816;2023-02-07T01:32:49;1.60;99.90
48686;DHT22;34485;51.536;3.816;2023-02-07T01:35:15;1.60;99.90
48686;DHT22;34485;51.536;3.816;2023-02-07T01:37:41;1.50;99.90
48686;DHT22;34485;51.536;3.816;2023-02-07T01:40:07;1.50;99.90
48686;DHT22;34485;51.536;3.816;2023-02-07T01:42:33;1.40;99.90
48686;DHT22;34485;51.536;3.816;2023-02-07T01:47:57;1.30;99.90
48686;DHT22;34485;51.536;3.816;2023-02-07T01:50:24;1.30;99.90
48686;DHT22;34485;51.536;3.816;2023-02-07T01:52:50;1.40;99.90
48686;DHT22;34485;51.536;3.816;2023-02-07T01:55:22;1.50;99.90
48686;DHT22;34485;51.536;3.816;2023-02-07T01:57:49;1.50;99.90
48686;DHT22;34485;51.536;3.816;2023-02-07T02:00:15;1.40;99.90
48686;DHT22;34485;51.536;3.816;2023-02-07T02:02:42;1.40;99.90
48686;DHT22;34485;51.536;3.816;2023-02-07T02:05:09;1.40;99.90
48686;DHT22;34485;51.536;3.816;2023-02-07T02:07:35;1.40;99.90
48686;DHT22;34485;51.536;3.816;2023-02-07T02:10:01;1.40;99.90
48686;DHT22;34485;51.536;3.816;2023-02-07T02:15:31;1.40;99.90
48686;DHT22;34485;51.536;3.816;2023-02-07T02:26:40;1.40;99.90
48686;DHT22;34485;51.536;3.816;2023-02-07T02:35:35;1.50;99.90
48686;DHT22;34485;51.536;3.816;2023-02-07T02:38:16;1.50;99.90
48686;DHT22;34485;51.536;3.816;2023-02-07T02:40:56;1.50;99.90
48686;DHT22;34485;51.536;3.816;2023-02-07T02:43:29;1.60;99.90
48686;DHT22;34485;51.536;3.816;2023-02-07T02:46:06;1.60;99.90
48686;DHT22;34485;51.536;3.816;2023-02-07T02:48:34;1.60;99.90
48686;DHT22;34485;51.536;3.816;2023-02-07T02:51:00;1.70;99.90
48686;DHT22;34485;51.536;3.816;2023-02-07T02:53:26;1.70;99.90
48686;DHT22;34485;51.536;3.816;2023-02-07T02:56:06;1.60;99.90
48686;DHT22;34485;51.536;3.816;2023-02-07T03:07:22;1.40;99.90
48686;DHT22;34485;51.536;3.816;2023-02-07T03:12:57;1.60;99.90
48686;DHT22;34485;51.536;3.816;2023-02-07T03:18:08;1.50;99.90
48686;DHT22;34485;51.536;3.816;2023-02-07T03:20:48;1.30;99.90
48686;DHT22;34485;51.536;3.816;2023-02-07T03:23:17;1.30;99.90
48686;DHT22;34485;51.536;3.816;2023-02-07T03:25:44;1.30;99.90
48686;DHT22;34485;51.536;3.816;2023-02-07T03:28:11;1.20;99.90
48686;DHT22;34485;51.536;3.816;2023-02-07T03:30:39;1.20;99.90
48686;DHT22;34485;51.536;3.816;2023-02-07T03:33:10;1.10;99.90
48686;DHT22;34485;51.536;3.816;2023-02-07T03:36:26;1.20;99.90
48686;DHT22;34485;51.536;3.816;2023-02-07T03:38:33;1.30;99.90
48686;DHT22;34485;51.536;3.816;2023-02-07T03:41:04;1.30;99.90
48686;DHT22;34485;51.536;3.816;2023-02-07T03:43:32;1.30;99.90
48686;DHT22;34485;51.536;3.816;2023-02-07T03:45:59;1.30;99.90
48686;DHT22;34485;51.536;3.816;2023-02-07T03:48:24;1.30;99.90
48686;DHT22;34485;51.536;3.816;2023-02-07T03:50:50;1.20;99.90
48686;DHT22;34485;51.536;3.816;2023-02-07T03:53:18;1.20;99.90
48686;DHT22;34485;51.536;3.816;2023-02-07T03:55:43;1.20;99.90
48686;DHT22;34485;51.536;3.816;2023-02-07T03:58:09;1.20;99.90
48686;DHT22;34485;51.536;3.816;2023-02-07T04:00:35;1.10;99.90
48686;DHT22;34485;51.536;3.816;2023-02-07T04:03:01;1.10;99.90
48686;DHT22;34485;51.536;3.816;2023-02-07T04:05:27;1.20;99.90
48686;DHT22;34485;51.536;3.816;2023-02-07T04:07:53;1.20;99.90
48686;DHT22;34485;51.536;3.816;2023-02-07T04:10:18;1.20;99.90
48686;DHT22;34485;51.536;3.816;2023-02-07T04:12:44;1.20;99.90
48686;DHT22;34485;51.536;3.816;2023-02-07T04:15:10;1.20;99.90
48686;DHT22;34485;51.536;3.816;2023-02-07T04:17:36;1.20;99.90
48686;DHT22;34485;51.536;3.816;2023-02-07T04:20:03;1.10;99.90
48686;DHT22;34485;51.536;3.816;2023-02-07T04:22:29;1.00;99.90
48686;DHT22;34485;51.536;3.816;2023-02-07T04:24:55;0.90;99.90
48686;DHT22;34485;51.536;3.816;2023-02-07T04:27:20;0.90;99.90
48686;DHT22;34485;51.536;3.816;2023-02-07T04:29:46;0.80;99.90
48686;DHT22;34485;51.536;3.816;2023-02-07T04:32:12;0.80;99.90
48686;DHT22;34485;51.536;3.816;2023-02-07T04:34:37;0.70;99.90
48686;DHT22;34485;51.536;3.816;2023-02-07T04:37:03;0.70;99.90
48686;DHT22;34485;51.536;3.816;2023-02-07T04:39:28;0.60;99.90
48686;DHT22;34485;51.536;3.816;2023-02-07T04:41:54;0.60;99.90
48686;DHT22;34485;51.536;3.816;2023-02-07T04:44:20;0.70;99.90
48686;DHT22;34485;51.536;3.816;2023-02-07T04:46:45;0.70;99.90
48686;DHT22;34485;51.536;3.816;2023-02-07T04:49:11;0.70;99.90
48686;DHT22;34485;51.536;3.816;2023-02-07T04:51:37;0.70;99.90
48686;DHT22;34485;51.536;3.816;2023-02-07T04:54:03;0.60;99.90
48686;DHT22;34485;51.536;3.816;2023-02-07T04:56:28;0.50;99.90
48686;DHT22;34485;51.536;3.816;2023-02-07T05:01:20;0.50;99.90
48686;DHT22;34485;51.536;3.816;2023-02-07T05:06:11;0.30;99.90
48686;DHT22;34485;51.536;3.816;2023-02-07T05:08:37;0.10;99.90
48686;DHT22;34485;51.536;3.816;2023-02-07T05:11:04;0.10;99.90
48686;DHT22;34485;51.536;3.816;2023-02-07T05:13:30;0.10;99.90
48686;DHT22;34485;51.536;3.816;2023-02-07T05:15:56;0.20;99.90
48686;DHT22;34485;51.536;3.816;2023-02-07T05:18:21;0.30;99.90
48686;DHT22;34485;51.536;3.816;2023-02-07T05:20:47;0.30;99.90
48686;DHT22;34485;51.536;3.816;2023-02-07T05:23:13;0.40;99.90
48686;DHT22;34485;51.536;3.816;2023-02-07T05:25:41;0.40;99.90
48686;DHT22;34485;51.536;3.816;2023-02-07T05:28:06;0.50;99.90
48686;DHT22;34485;51.536;3.816;2023-02-07T05:30:32;0.60;99.90
48686;DHT22;34485;51.536;3.816;2023-02-07T05:32:57;0.50;99.90
48686;DHT22;34485;51.536;3.816;2023-02-07T05:35:37;0.50;99.90
48686;DHT22;34485;51.536;3.816;2023-02-07T05:38:05;0.60;99.90
48686;DHT22;34485;51.536;3.816;2023-02-07T05:40:35;0.70;99.90
48686;DHT22;34485;51.536;3.816;2023-02-07T05:43:01;0.70;99.90
48686;DHT22;34485;51.536;3.816;2023-02-07T05:45:27;0.80;99.90
48686;DHT22;34485;51.536;3.816;2023-02-07T05:47:52;0.80;99.90
48686;DHT22;34485;51.536;3.816;2023-02-07T05:50:18;0.80;99.90
48686;DHT22;34485;51.536;3.816;2023-02-07T05:52:44;0.80;99.90
48686;DHT22;34485;51.536;3.816;2023-02-07T05:55:10;0.80;99.90
48686;DHT22;34485;51.536;3.816;2023-02-07T05:57:40;0.70;99.90
48686;DHT22;34485;51.536;3.816;2023-02-07T06:00:08;0.80;99.90
48686;DHT22;34485;51.536;3.816;2023-02-07T06:02:34;1.00;99.90
48686;DHT22;34485;51.536;3.816;2023-02-07T06:05:00;0.90;99.90
48686;DHT22;34485;51.536;3.816;2023-02-07T06:07:25;0.90;99.90
48686;DHT22;34485;51.536;3.816;2023-02-07T06:09:51;0.80;99.90
48686;DHT22;34485;51.536;3.816;2023-02-07T06:12:16;0.70;99.90
48686;DHT22;34485;51.536;3.816;2023-02-07T06:14:42;0.60;99.90
48686;DHT22;34485;51.536;3.816;2023-02-07T06:17:08;0.60;99.90
48686;DHT22;34485;51.536;3.816;2023-02-07T06:19:33;0.50;99.90
48686;DHT22;34485;51.536;3.816;2023-02-07T06:21:59;0.50;99.90
48686;DHT22;34485;51.536;3.816;2023-02-07T06:24:25;0.50;99.90
48686;DHT22;34485;51.536;3.816;2023-02-07T06:26:50;0.40;99.90
48686;DHT22;34485;51.536;3.816;2023-02-07T06:29:16;0.50;99.90
48686;DHT22;34485;51.536;3.816;2023-02-07T06:31:41;0.50;99.90
48686;DHT22;34485;51.536;3.816;2023-02-07T06:34:07;0.60;99.90
48686;DHT22;34485;51.536;3.816;2023-02-07T06:36:33;0.70;99.90
48686;DHT22;34485;51.536;3.816;2023-02-07T06:38:58;0.70;99.90
48686;DHT22;34485;51.536;3.816;2023-02-07T06:41:24;0.70;99.90
48686;DHT22;34485;51.536;3.816;2023-02-07T06:43:50;0.70;99.90
48686;DHT22;34485;51.536;3.816;2023-02-07T06:46:15;0.70;99.90
48686;DHT22;34485;51.536;3.816;2023-02-07T06:48:41;0.70;99.90
48686;DHT22;34485;51.536;3.816;2023-02-07T06:51:07;0.60;99.90
48686;DHT22;34485;51.536;3.816;2023-02-07T06:53:32;0.50;99.90
48686;DHT22;34485;51.536;3.816;2023-02-07T06:55:58;0.40;99.90
48686;DHT22;34485;51.536;3.816;2023-02-07T06:58:23;0.30;99.90
48686;DHT22;34485;51.536;3.816;2023-02-07T07:00:49;0.20;99.90
48686;DHT22;34485;51.536;3.816;2023-02-07T07:03:16;0.20;99.90
48686;DHT22;34485;51.536;3.816;2023-02-07T07:05:43;0.10;99.90
48686;DHT22;34485;51.536;3.816;2023-02-07T07:08:09;0.10;99.90
48686;DHT22;34485;51.536;3.816;2023-02-07T07:10:35;0.10;99.90
48686;DHT22;34485;51.536;3.816;2023-02-07T07:13:01;0.00;99.90
48686;DHT22;34485;51.536;3.816;2023-02-07T07:15:26;0.00;99.90
48686;DHT22;34485;51.536;3.816;2023-02-07T07:17:52;0.00;99.90
48686;DHT22;34485;51.536;3.816;2023-02-07T07:22:53;-0.10;99.90
48686;DHT22;34485;51.536;3.816;2023-02-07T07:25:19;-0.10;99.90
48686;DHT22;34485;51.536;3.816;2023-02-07T07:27:44;-0.10;99.90
48686;DHT22;34485;51.536;3.816;2023-02-07T07:30:11;-0.10;99.90
48686;DHT22;34485;51.536;3.816;2023-02-07T07:32:37;0.00;99.90
48686;DHT22;34485;51.536;3.816;2023-02-07T07:35:03;0.00;99.90
48686;DHT22;34485;51.536;3.816;2023-02-07T07:37:29;0.00;99.90
48686;DHT22;34485;51.536;3.816;2023-02-07T07:39:55;0.10;99.90
48686;DHT22;34485;51.536;3.816;2023-02-07T07:42:20;0.20;99.90
48686;DHT22;34485;51.536;3.816;2023-02-07T07:44:46;0.10;99.90
48686;DHT22;34485;51.536;3.816;2023-02-07T07:47:12;0.20;99.90
48686;DHT22;34485;51.536;3.816;2023-02-07T07:49:38;0.30;99.90
48686;DHT22;34485;51.536;3.816;2023-02-07T07:52:04;0.40;99.90
48686;DHT22;34485;51.536;3.816;2023-02-07T07:54:30;0.60;99.90
48686;DHT22;34485;51.536;3.816;2023-02-07T07:56:55;0.60;99.90
48686;DHT22;34485;51.536;3.816;2023-02-07T07:59:21;0.80;99.90
48686;DHT22;34485;51.536;3.816;2023-02-07T08:01:47;0.90;99.90
48686;DHT22;34485;51.536;3.816;2023-02-07T08:04:12;1.00;99.90
48686;DHT22;34485;51.536;3.816;2023-02-07T08:06:38;1.20;99.90
48686;DHT22;34485;51.536;3.816;2023-02-07T08:09:03;1.40;99.90
48686;DHT22;34485;51.536;3.816;2023-02-07T08:11:29;1.70;99.90
48686;DHT22;34485;51.536;3.816;2023-02-07T08:13:55;2.10;99.90
48686;DHT22;34485;51.536;3.816;2023-02-07T08:16:20;2.90;99.90
48686;DHT22;34485;51.536;3.816;2023-02-07T08:18:46;3.50;99.90
48686;DHT22;34485;51.536;3.816;2023-02-07T08:21:11;4.20;99.90
48686;DHT22;34485;51.536;3.816;2023-02-07T08:23:37;4.80;99.90
48686;DHT22;34485;51.536;3.816;2023-02-07T08:26:03;5.00;99.90
48686;DHT22;34485;51.536;3.816;2023-02-07T08:28:30;4.80;99.90
48686;DHT22;34485;51.536;3.816;2023-02-07T08:31:04;5.20;99.90
48686;DHT22;34485;51.536;3.816;2023-02-07T08:33:30;5.50;99.90
48686;DHT22;34485;51.536;3.816;2023-02-07T08:35:56;5.90;99.90
48686;DHT22;34485;51.536;3.816;2023-02-07T08:38:22;6.40;99.90
48686;DHT22;34485;51.536;3.816;2023-02-07T08:40:50;6.00;99.90
48686;DHT22;34485;51.536;3.816;2023-02-07T08:43:16;6.10;99.90
48686;DHT22;34485;51.536;3.816;2023-02-07T08:45:45;6.20;99.90
48686;DHT22;34485;51.536;3.816;2023-02-07T08:48:11;6.30;99.90
48686;DHT22;34485;51.536;3.816;2023-02-07T08:50:37;6.40;99.90
48686;DHT22;34485;51.536;3.816;2023-02-07T08:53:03;6.30;99.90
48686;DHT22;34485;51.536;3.816;2023-02-07T08:55:29;6.40;99.90
48686;DHT22;34485;51.536;3.816;2023-02-07T08:57:55;6.20;99.90
48686;DHT22;34485;51.536;3.816;2023-02-07T09:00:21;6.20;99.90
48686;DHT22;34485;51.536;3.816;2023-02-07T09:02:46;5.70;99.90
48686;DHT22;34485;51.536;3.816;2023-02-07T09:05:12;5.80;99.90
48686;DHT22;34485;51.536;3.816;2023-02-07T09:07:37;5.50;99.90
48686;DHT22;34485;51.536;3.816;2023-02-07T09:10:04;5.10;99.90
48686;DHT22;34485;51.536;3.816;2023-02-07T09:12:32;4.90;99.90
48686;DHT22;34485;51.536;3.816;2023-02-07T09:14:57;4.90;99.90
48686;DHT22;34485;51.536;3.816;2023-02-07T09:17:23;4.80;99.90
48686;DHT22;34485;51.536;3.816;2023-02-07T09:19:48;4.40;99.90
48686;DHT22;34485;51.536;3.816;2023-02-07T09:22:14;4.40;99.90
48686;DHT22;34485;51.536;3.816;2023-02-07T09:27:06;4.50;99.90
48686;DHT22;34485;51.536;3.816;2023-02-07T09:29:31;4.50;99.90
48686;DHT22;34485;51.536;3.816;2023-02-07T09:31:57;4.80;99.90
48686;DHT22;34485;51.536;3.816;2023-02-07T09:36:49;5.30;99.90
48686;DHT22;34485;51.536;3.816;2023-02-07T09:39:16;5.20;99.90
48686;DHT22;34485;51.536;3.816;2023-02-07T09:41:53;5.00;99.90
48686;DHT22;34485;51.536;3.816;2023-02-07T09:44:40;5.00;99.90
48686;DHT22;34485;51.536;3.816;2023-02-07T09:47:10;5.00;99.90
48686;DHT22;34485;51.536;3.816;2023-02-07T09:49:56;5.20;99.90
48686;DHT22;34485;51.536;3.816;2023-02-07T09:52:30;5.00;99.90
48686;DHT22;34485;51.536;3.816;2023-02-07T09:54:58;5.40;99.90
48686;DHT22;34485;51.536;3.816;2023-02-07T10:00:19;5.50;99.90
48686;DHT22;34485;51.536;3.816;2023-02-07T10:05:21;5.40;99.90
48686;DHT22;34485;51.536;3.816;2023-02-07T10:07:49;5.20;99.90
48686;DHT22;34485;51.536;3.816;2023-02-07T10:10:30;5.30;99.90
48686;DHT22;34485;51.536;3.816;2023-02-07T10:15:42;5.40;99.90
48686;DHT22;34485;51.536;3.816;2023-02-07T10:18:37;5.50;99.90
48686;DHT22;34485;51.536;3.816;2023-02-07T10:21:33;5.70;99.90
48686;DHT22;34485;51.536;3.816;2023-02-07T10:27:00;6.00;99.90
48686;DHT22;34485;51.536;3.816;2023-02-07T10:32:07;6.90;99.90
48686;DHT22;34485;51.536;3.816;2023-02-07T10:34:37;7.50;99.90
48686;DHT22;34485;51.536;3.816;2023-02-07T10:37:22;7.50;99.90
48686;DHT22;34485;51.536;3.816;2023-02-07T10:40:10;7.00;99.90
48686;DHT22;34485;51.536;3.816;2023-02-07T10:42:38;6.30;99.90
48686;DHT22;34485;51.536;3.816;2023-02-07T10:47:37;5.20;99.90
48686;DHT22;34485;51.536;3.816;2023-02-07T10:50:16;5.10;99.90
48686;DHT22;34485;51.536;3.816;2023-02-07T10:52:49;5.00;99.90
48686;DHT22;34485;51.536;3.816;2023-02-07T10:55:18;4.70;99.90
48686;DHT22;34485;51.536;3.816;2023-02-07T10:57:54;4.30;99.90
48686;DHT22;34485;51.536;3.816;2023-02-07T11:03:13;4.10;99.90
48686;DHT22;34485;51.536;3.816;2023-02-07T11:13:22;3.90;99.90
48686;DHT22;34485;51.536;3.816;2023-02-07T11:16:00;4.00;99.90
48686;DHT22;34485;51.536;3.816;2023-02-07T11:20:54;3.90;99.90
48686;DHT22;34485;51.536;3.816;2023-02-07T11:23:21;4.00;99.90
48686;DHT22;34485;51.536;3.816;2023-02-07T11:25:48;3.80;99.90
48686;DHT22;34485;51.536;3.816;2023-02-07T11:28:28;3.80;99.90
48686;DHT22;34485;51.536;3.816;2023-02-07T11:31:02;3.90;99.90
48686;DHT22;34485;51.536;3.816;2023-02-07T11:33:33;4.00;99.90
48686;DHT22;34485;51.536;3.816;2023-02-07T11:36:12;3.90;99.90
48686;DHT22;34485;51.536;3.816;2023-02-07T11:38:50;3.90;99.90
48686;DHT22;34485;51.536;3.816;2023-02-07T11:41:22;3.80;99.90
48686;DHT22;34485;51.536;3.816;2023-02-07T11:44:01;3.60;99.90
48686;DHT22;34485;51.536;3.816;2023-02-07T11:46:35;3.10;99.90
48686;DHT22;34485;51.536;3.816;2023-02-07T11:49:02;2.90;99.90
48686;DHT22;34485;51.536;3.816;2023-02-07T11:51:29;2.70;99.90
48686;DHT22;34485;51.536;3.816;2023-02-07T11:54:00;2.70;99.90
48686;DHT22;34485;51.536;3.816;2023-02-07T11:58:56;2.80;99.90
48686;DHT22;34485;51.536;3.816;2023-02-07T12:01:32;3.00;99.90
48686;DHT22;34485;51.536;3.816;2023-02-07T12:04:01;3.20;99.90
48686;DHT22;34485;51.536;3.816;2023-02-07T12:09:32;3.00;99.90
48686;DHT22;34485;51.536;3.816;2023-02-07T12:12:02;3.00;99.90
48686;DHT22;34485;51.536;3.816;2023-02-07T12:14:36;3.10;99.90
48686;DHT22;34485;51.536;3.816;2023-02-07T12:17:06;2.90;99.90
48686;DHT22;34485;51.536;3.816;2023-02-07T12:20:03;2.70;99.90
48686;DHT22;34485;51.536;3.816;2023-02-07T12:22:35;2.90;99.90
48686;DHT22;34485;51.536;3.816;2023-02-07T12:25:16;3.00;99.90
48686;DHT22;34485;51.536;3.816;2023-02-07T12:27:46;3.40;99.90
48686;DHT22;34485;51.536;3.816;2023-02-07T12:35:51;3.70;99.90
48686;DHT22;34485;51.536;3.816;2023-02-07T12:38:25;3.70;99.90
48686;DHT22;34485;51.536;3.816;2023-02-07T12:44:12;3.40;99.90
48686;DHT22;34485;51.536;3.816;2023-02-07T12:55:39;3.70;99.90
48686;DHT22;34485;51.536;3.816;2023-02-07T13:00:59;3.70;99.90
48686;DHT22;34485;51.536;3.816;2023-02-07T13:03:37;3.60;99.90
48686;DHT22;34485;51.536;3.816;2023-02-07T13:46:06;3.10;99.90
48686;DHT22;34485;51.536;3.816;2023-02-07T13:48:56;2.60;99.90
48686;DHT22;34485;51.536;3.816;2023-02-07T13:52:02;2.50;99.90
48686;DHT22;34485;51.536;3.816;2023-02-07T13:54:38;2.80;99.90
48686;DHT22;34485;51.536;3.816;2023-02-07T13:57:18;2.90;99.90
48686;DHT22;34485;51.536;3.816;2023-02-07T14:00:13;2.80;99.90
48686;DHT22;34485;51.536;3.816;2023-02-07T14:02:48;2.30;99.90
48686;DHT22;34485;51.536;3.816;2023-02-07T14:05:29;2.40;99.90
48686;DHT22;34485;51.536;3.816;2023-02-07T14:08:02;2.60;99.90
48686;DHT22;34485;51.536;3.816;2023-02-07T14:10:49;2.70;99.90
48686;DHT22;34485;51.536;3.816;2023-02-07T14:16:11;2.70;99.90
48686;DHT22;34485;51.536;3.816;2023-02-07T14:18:45;2.80;99.90
48686;DHT22;34485;51.536;3.816;2023-02-07T14:21:21;2.70;99.90
48686;DHT22;34485;51.536;3.816;2023-02-07T14:32:00;2.90;99.90
48686;DHT22;34485;51.536;3.816;2023-02-07T14:34:35;2.80;99.90
48686;DHT22;34485;51.536;3.816;2023-02-07T14:37:20;3.00;99.90
48686;DHT22;34485;51.536;3.816;2023-02-07T14:40:06;3.00;99.90
48686;DHT22;34485;51.536;3.816;2023-02-07T14:42:33;3.00;99.90
48686;DHT22;34485;51.536;3.816;2023-02-07T14:44:58;2.90;99.90
48686;DHT22;34485;51.536;3.816;2023-02-07T14:47:26;2.90;99.90
48686;DHT22;34485;51.536;3.816;2023-02-07T14:49:55;2.80;99.90
48686;DHT22;34485;51.536;3.816;2023-02-07T14:52:25;2.60;99.90
48686;DHT22;34485;51.536;3.816;2023-02-07T14:57:53;2.60;99.90
48686;DHT22;34485;51.536;3.816;2023-02-07T15:00:30;2.60;99.90
48686;DHT22;34485;51.536;3.816;2023-02-07T15:03:02;2.50;99.90
48686;DHT22;34485;51.536;3.816;2023-02-07T15:05:35;2.40;99.90
48686;DHT22;34485;51.536;3.816;2023-02-07T15:13:01;2.50;99.90
48686;DHT22;34485;51.536;3.816;2023-02-07T15:15:51;2.60;99.90
48686;DHT22;34485;51.536;3.816;2023-02-07T15:18:16;2.60;99.90
48686;DHT22;34485;51.536;3.816;2023-02-07T15:20:48;2.60;99.90
48686;DHT22;34485;51.536;3.816;2023-02-07T15:23:14;2.70;99.90
48686;DHT22;34485;51.536;3.816;2023-02-07T15:25:42;2.70;99.90
48686;DHT22;34485;51.536;3.816;2023-02-07T15:28:26;2.80;99.90
48686;DHT22;34485;51.536;3.816;2023-02-07T15:31:13;2.80;99.90
48686;DHT22;34485;51.536;3.816;2023-02-07T15:36:38;2.90;99.90
48686;DHT22;34485;51.536;3.816;2023-02-07T15:39:26;2.90;99.90
48686;DHT22;34485;51.536;3.816;2023-02-07T15:41:54;2.90;99.90
48686;DHT22;34485;51.536;3.816;2023-02-07T15:44:24;3.00;99.90
48686;DHT22;34485;51.536;3.816;2023-02-07T15:46:57;3.00;99.90
48686;DHT22;34485;51.536;3.816;2023-02-07T15:49:38;3.00;99.90
48686;DHT22;34485;51.536;3.816;2023-02-07T15:52:31;3.00;99.90
48686;DHT22;34485;51.536;3.816;2023-02-07T15:54:58;3.00;99.90
48686;DHT22;34485;51.536;3.816;2023-02-07T15:57:35;3.00;99.90
48686;DHT22;34485;51.536;3.816;2023-02-07T16:00:22;2.90;99.90
48686;DHT22;34485;51.536;3.816;2023-02-07T16:05:29;2.90;99.90
48686;DHT22;34485;51.536;3.816;2023-02-07T16:07:56;2.90;99.90
48686;DHT22;34485;51.536;3.816;2023-02-07T16:12:51;2.90;99.90
48686;DHT22;34485;51.536;3.816;2023-02-07T16:17:53;2.70;99.90
48686;DHT22;34485;51.536;3.816;2023-02-07T16:20:19;2.60;99.90
48686;DHT22;34485;51.536;3.816;2023-02-07T16:22:45;2.50;99.90
48686;DHT22;34485;51.536;3.816;2023-02-07T16:25:20;2.50;99.90
48686;DHT22;34485;51.536;3.816;2023-02-07T16:27:48;2.40;99.90
48686;DHT22;34485;51.536;3.816;2023-02-07T16:30:22;2.40;99.90
48686;DHT22;34485;51.536;3.816;2023-02-07T16:32:48;2.30;99.90
48686;DHT22;34485;51.536;3.816;2023-02-07T16:35:23;2.10;99.90
48686;DHT22;34485;51.536;3.816;2023-02-07T16:37:49;2.00;99.90
48686;DHT22;34485;51.536;3.816;2023-02-07T16:40:16;2.00;99.90
48686;DHT22;34485;51.536;3.816;2023-02-07T16:42:42;1.90;99.90
48686;DHT22;34485;51.536;3.816;2023-02-07T16:45:23;1.80;99.90
48686;DHT22;34485;51.536;3.816;2023-02-07T16:47:49;1.80;99.90
48686;DHT22;34485;51.536;3.816;2023-02-07T16:50:21;1.70;99.90
48686;DHT22;34485;51.536;3.816;2023-02-07T16:52:48;1.60;99.90
48686;DHT22;34485;51.536;3.816;2023-02-07T16:55:16;1.60;99.90
48686;DHT22;34485;51.536;3.816;2023-02-07T16:57:43;1.60;99.90
48686;DHT22;34485;51.536;3.816;2023-02-07T17:00:16;1.50;99.90
48686;DHT22;34485;51.536;3.816;2023-02-07T17:02:44;1.50;99.90
48686;DHT22;34485;51.536;3.816;2023-02-07T17:05:13;1.40;99.90
48686;DHT22;34485;51.536;3.816;2023-02-07T17:07:39;1.40;99.90
48686;DHT22;34485;51.536;3.816;2023-02-07T17:10:26;1.30;99.90
48686;DHT22;34485;51.536;3.816;2023-02-07T17:12:53;1.30;99.90
48686;DHT22;34485;51.536;3.816;2023-02-07T17:15:18;1.30;99.90
48686;DHT22;34485;51.536;3.816;2023-02-07T17:17:44;1.20;99.90
48686;DHT22;34485;51.536;3.816;2023-02-07T17:20:21;1.20;99.90
48686;DHT22;34485;51.536;3.816;2023-02-07T17:22:48;1.20;99.90
48686;DHT22;34485;51.536;3.816;2023-02-07T17:25:15;1.20;99.90
48686;DHT22;34485;51.536;3.816;2023-02-07T17:27:40;1.20;99.90
48686;DHT22;34485;51.536;3.816;2023-02-07T17:30:14;1.20;99.90
48686;DHT22;34485;51.536;3.816;2023-02-07T17:32:40;1.10;99.90
48686;DHT22;34485;51.536;3.816;2023-02-07T17:35:06;1.10;99.90
48686;DHT22;34485;51.536;3.816;2023-02-07T17:37:31;1.10;99.90
48686;DHT22;34485;51.536;3.816;2023-02-07T17:39:57;1.00;99.90
48686;DHT22;34485;51.536;3.816;2023-02-07T17:42:22;1.00;99.90
48686;DHT22;34485;51.536;3.816;2023-02-07T17:44:48;0.90;99.90
48686;DHT22;34485;51.536;3.816;2023-02-07T17:47:14;1.00;99.90
48686;DHT22;34485;51.536;3.816;2023-02-07T17:49:39;0.80;99.90
48686;DHT22;34485;51.536;3.816;2023-02-07T17:52:05;0.80;99.90
48686;DHT22;34485;51.536;3.816;2023-02-07T17:54:33;0.70;99.90
48686;DHT22;34485;51.536;3.816;2023-02-07T17:56:59;0.70;99.90
48686;DHT22;34485;51.536;3.816;2023-02-07T17:59:25;0.70;99.90
48686;DHT22;34485;51.536;3.816;2023-02-07T18:01:50;0.60;99.90
48686;DHT22;34485;51.536;3.816;2023-02-07T18:04:16;0.60;99.90
48686;DHT22;34485;51.536;3.816;2023-02-07T18:06:42;0.60;99.90
48686;DHT22;34485;51.536;3.816;2023-02-07T18:09:17;0.50;99.90
48686;DHT22;34485;51.536;3.816;2023-02-07T18:11:43;0.50;99.90
48686;DHT22;34485;51.536;3.816;2023-02-07T18:14:09;0.60;99.90
48686;DHT22;34485;51.536;3.816;2023-02-07T18:16:34;0.60;99.90
48686;DHT22;34485;51.536;3.816;2023-02-07T18:19:00;0.60;99.90
48686;DHT22;34485;51.536;3.816;2023-02-07T18:21:28;0.60;99.90
48686;DHT22;34485;51.536;3.816;2023-02-07T18:23:53;0.60;99.90
48686;DHT22;34485;51.536;3.816;2023-02-07T18:26:21;0.50;99.90
48686;DHT22;34485;51.536;3.816;2023-02-07T18:28:46;0.50;99.90
48686;DHT22;34485;51.536;3.816;2023-02-07T18:31:20;0.60;99.90
48686;DHT22;34485;51.536;3.816;2023-02-07T18:33:46;0.60;99.90
48686;DHT22;34485;51.536;3.816;2023-02-07T18:36:12;0.50;99.90
48686;DHT22;34485;51.536;3.816;2023-02-07T18:38:38;0.50;99.90
48686;DHT22;34485;51.536;3.816;2023-02-07T18:41:08;0.60;99.90
48686;DHT22;34485;51.536;3.816;2023-02-07T18:43:36;0.50;99.90
48686;DHT22;34485;51.536;3.816;2023-02-07T18:46:07;0.60;99.90
48686;DHT22;34485;51.536;3.816;2023-02-07T18:48:33;0.50;99.90
48686;DHT22;34485;51.536;3.816;2023-02-07T19:25:07;0.40;99.90